sensor_id;sensor_type;location;lat;lon;timestamp;P1;durP1;ratioP1;P2;durP2;ratioP2
3941;SDS011;1985;48.592;8.850;2022-08-03T00:01:50;12.07;;;2.30;;
3941;SDS011;1985;48.592;8.850;2022-08-03T00:04:16;9.57;;;2.10;;
3941;SDS011;1985;48.592;8.850;2022-08-03T00:06:42;11.60;;;2.50;;
3941;SDS011;1985;48.592;8.850;2022-08-03T00:09:07;9.23;;;2.10;;
3941;SDS011;1985;48.592;8.850;2022-08-03T00:11:34;9.70;;;2.20;;
3941;SDS011;1985;48.592;8.850;2022-08-03T00:14:00;11.25;;;2.40;;
3941;SDS011;1985;48.592;8.850;2022-08-03T00:16:27;9.43;;;2.50;;
3941;SDS011;1985;48.592;8.850;2022-08-03T00:18:52;9.40;;;2.00;;
3941;SDS011;1985;48.592;8.850;2022-08-03T00:21:18;9.60;;;2.30;;
3941;SDS011;1985;48.592;8.850;2022-08-03T00:23:44;9.52;;;2.20;;
3941;SDS011;1985;48.592;8.850;2022-08-03T00:26:09;9.57;;;2.20;;
3941;SDS011;1985;48.592;8.850;2022-08-03T00:28:35;9.23;;;2.10;;
3941;SDS011;1985;48.592;8.850;2022-08-03T00:31:01;9.47;;;2.40;;
3941;SDS011;1985;48.592;8.850;2022-08-03T00:33:26;9.10;;;2.20;;
3941;SDS011;1985;48.592;8.850;2022-08-03T00:35:52;9.50;;;2.43;;
3941;SDS011;1985;48.592;8.850;2022-08-03T00:38:18;9.50;;;2.05;;
3941;SDS011;1985;48.592;8.850;2022-08-03T00:40:44;9.60;;;1.95;;
3941;SDS011;1985;48.592;8.850;2022-08-03T00:43:10;10.32;;;2.75;;
3941;SDS011;1985;48.592;8.850;2022-08-03T00:45:37;9.30;;;2.40;;
3941;SDS011;1985;48.592;8.850;2022-08-03T00:48:04;9.65;;;2.42;;
3941;SDS011;1985;48.592;8.850;2022-08-03T00:50:33;9.48;;;2.10;;
3941;SDS011;1985;48.592;8.850;2022-08-03T00:53:01;9.18;;;2.10;;
3941;SDS011;1985;48.592;8.850;2022-08-03T00:55:28;10.07;;;2.20;;
3941;SDS011;1985;48.592;8.850;2022-08-03T00:57:54;9.82;;;2.40;;
3941;SDS011;1985;48.592;8.850;2022-08-03T01:00:25;9.70;;;2.38;;
3941;SDS011;1985;48.592;8.850;2022-08-03T01:02:52;9.30;;;2.10;;
3941;SDS011;1985;48.592;8.850;2022-08-03T01:05:19;12.00;;;2.40;;
3941;SDS011;1985;48.592;8.850;2022-08-03T01:15:43;10.00;;;2.50;;
3941;SDS011;1985;48.592;8.850;2022-08-03T01:18:23;10.95;;;2.70;;
3941;SDS011;1985;48.592;8.850;2022-08-03T01:21:11;9.50;;;2.30;;
3941;SDS011;1985;48.592;8.850;2022-08-03T01:24:21;9.75;;;2.55;;
3941;SDS011;1985;48.592;8.850;2022-08-03T01:26:54;10.37;;;2.60;;
3941;SDS011;1985;48.592;8.850;2022-08-03T01:32:11;10.85;;;2.55;;
3941;SDS011;1985;48.592;8.850;2022-08-03T01:34:42;9.77;;;2.38;;
3941;SDS011;1985;48.592;8.850;2022-08-03T01:37:11;10.70;;;2.60;;
3941;SDS011;1985;48.592;8.850;2022-08-03T01:39:46;9.55;;;2.35;;
3941;SDS011;1985;48.592;8.850;2022-08-03T01:42:13;11.20;;;2.35;;
3941;SDS011;1985;48.592;8.850;2022-08-03T01:44:41;9.95;;;2.25;;
3941;SDS011;1985;48.592;8.850;2022-08-03T01:47:09;10.30;;;2.78;;
3941;SDS011;1985;48.592;8.850;2022-08-03T01:49:37;11.57;;;2.80;;
3941;SDS011;1985;48.592;8.850;2022-08-03T01:52:07;9.50;;;2.30;;
3941;SDS011;1985;48.592;8.850;2022-08-03T01:54:35;12.55;;;3.28;;
3941;SDS011;1985;48.592;8.850;2022-08-03T01:57:04;13.65;;;2.50;;
3941;SDS011;1985;48.592;8.850;2022-08-03T01:59:33;10.10;;;2.20;;
3941;SDS011;1985;48.592;8.850;2022-08-03T02:02:00;9.93;;;2.30;;
3941;SDS011;1985;48.592;8.850;2022-08-03T02:04:27;10.73;;;2.75;;
3941;SDS011;1985;48.592;8.850;2022-08-03T02:06:54;9.20;;;2.20;;
3941;SDS011;1985;48.592;8.850;2022-08-03T02:09:21;9.68;;;2.30;;
3941;SDS011;1985;48.592;8.850;2022-08-03T02:11:48;10.10;;;2.47;;
3941;SDS011;1985;48.592;8.850;2022-08-03T02:14:16;9.50;;;2.50;;
3941;SDS011;1985;48.592;8.850;2022-08-03T02:16:44;10.85;;;2.90;;
3941;SDS011;1985;48.592;8.850;2022-08-03T02:19:10;9.80;;;2.70;;
3941;SDS011;1985;48.592;8.850;2022-08-03T02:21:36;9.88;;;2.50;;
3941;SDS011;1985;48.592;8.850;2022-08-03T02:24:02;10.00;;;2.50;;
3941;SDS011;1985;48.592;8.850;2022-08-03T02:26:29;9.70;;;2.67;;
3941;SDS011;1985;48.592;8.850;2022-08-03T02:28:56;9.63;;;2.40;;
3941;SDS011;1985;48.592;8.850;2022-08-03T02:31:32;9.77;;;2.50;;
3941;SDS011;1985;48.592;8.850;2022-08-03T02:34:01;10.02;;;2.70;;
3941;SDS011;1985;48.592;8.850;2022-08-03T02:36:31;11.80;;;2.50;;
3941;SDS011;1985;48.592;8.850;2022-08-03T02:39:01;10.30;;;2.58;;
3941;SDS011;1985;48.592;8.850;2022-08-03T02:41:34;10.33;;;2.60;;
3941;SDS011;1985;48.592;8.850;2022-08-03T02:44:06;10.95;;;2.53;;
3941;SDS011;1985;48.592;8.850;2022-08-03T02:46:35;10.18;;;2.80;;
3941;SDS011;1985;48.592;8.850;2022-08-03T02:49:02;11.33;;;2.80;;
3941;SDS011;1985;48.592;8.850;2022-08-03T02:51:30;9.88;;;2.53;;
3941;SDS011;1985;48.592;8.850;2022-08-03T02:53:59;9.95;;;2.58;;
3941;SDS011;1985;48.592;8.850;2022-08-03T02:56:27;10.45;;;2.72;;
3941;SDS011;1985;48.592;8.850;2022-08-03T02:58:55;10.13;;;2.60;;
3941;SDS011;1985;48.592;8.850;2022-08-03T03:01:23;10.00;;;2.30;;
3941;SDS011;1985;48.592;8.850;2022-08-03T03:03:50;10.13;;;2.78;;
3941;SDS011;1985;48.592;8.850;2022-08-03T03:06:17;10.73;;;2.40;;
3941;SDS011;1985;48.592;8.850;2022-08-03T03:08:44;10.10;;;2.60;;
3941;SDS011;1985;48.592;8.850;2022-08-03T03:11:12;9.55;;;2.28;;
3941;SDS011;1985;48.592;8.850;2022-08-03T03:13:40;9.50;;;2.40;;
3941;SDS011;1985;48.592;8.850;2022-08-03T03:16:07;9.70;;;2.60;;
3941;SDS011;1985;48.592;8.850;2022-08-03T03:18:34;9.80;;;2.50;;
3941;SDS011;1985;48.592;8.850;2022-08-03T03:21:02;9.63;;;2.22;;
3941;SDS011;1985;48.592;8.850;2022-08-03T03:23:28;10.02;;;2.70;;
3941;SDS011;1985;48.592;8.850;2022-08-03T03:25:55;10.40;;;2.80;;
3941;SDS011;1985;48.592;8.850;2022-08-03T03:28:23;9.75;;;2.10;;
3941;SDS011;1985;48.592;8.850;2022-08-03T03:30:49;10.17;;;2.47;;
3941;SDS011;1985;48.592;8.850;2022-08-03T03:33:15;10.70;;;2.80;;
3941;SDS011;1985;48.592;8.850;2022-08-03T03:35:41;10.55;;;2.70;;
3941;SDS011;1985;48.592;8.850;2022-08-03T03:38:09;10.33;;;2.70;;
3941;SDS011;1985;48.592;8.850;2022-08-03T03:40:35;10.40;;;2.40;;
3941;SDS011;1985;48.592;8.850;2022-08-03T03:43:04;10.50;;;2.90;;
3941;SDS011;1985;48.592;8.850;2022-08-03T03:45:32;10.27;;;2.60;;
3941;SDS011;1985;48.592;8.850;2022-08-03T03:48:00;9.90;;;2.50;;
3941;SDS011;1985;48.592;8.850;2022-08-03T03:50:26;10.15;;;2.65;;
3941;SDS011;1985;48.592;8.850;2022-08-03T03:52:53;10.10;;;2.90;;
3941;SDS011;1985;48.592;8.850;2022-08-03T03:55:19;10.97;;;3.00;;
3941;SDS011;1985;48.592;8.850;2022-08-03T03:57:45;10.13;;;2.80;;
3941;SDS011;1985;48.592;8.850;2022-08-03T04:00:14;9.50;;;2.30;;
3941;SDS011;1985;48.592;8.850;2022-08-03T04:02:41;10.85;;;2.95;;
3941;SDS011;1985;48.592;8.850;2022-08-03T04:05:07;11.90;;;2.80;;
3941;SDS011;1985;48.592;8.850;2022-08-03T04:07:57;10.07;;;2.30;;
3941;SDS011;1985;48.592;8.850;2022-08-03T04:13:50;9.55;;;2.50;;
3941;SDS011;1985;48.592;8.850;2022-08-03T04:16:20;10.40;;;2.70;;
3941;SDS011;1985;48.592;8.850;2022-08-03T04:18:50;11.18;;;2.53;;
3941;SDS011;1985;48.592;8.850;2022-08-03T04:21:20;9.73;;;2.00;;
3941;SDS011;1985;48.592;8.850;2022-08-03T04:23:47;10.70;;;3.10;;
3941;SDS011;1985;48.592;8.850;2022-08-03T04:26:18;11.02;;;2.78;;
3941;SDS011;1985;48.592;8.850;2022-08-03T04:28:46;9.98;;;2.50;;
3941;SDS011;1985;48.592;8.850;2022-08-03T04:31:14;10.63;;;2.80;;
3941;SDS011;1985;48.592;8.850;2022-08-03T04:33:42;10.02;;;2.55;;
3941;SDS011;1985;48.592;8.850;2022-08-03T04:36:10;9.77;;;2.75;;
3941;SDS011;1985;48.592;8.850;2022-08-03T04:38:43;10.00;;;2.35;;
3941;SDS011;1985;48.592;8.850;2022-08-03T04:41:19;13.87;;;3.10;;
3941;SDS011;1985;48.592;8.850;2022-08-03T04:43:48;9.50;;;2.60;;
3941;SDS011;1985;48.592;8.850;2022-08-03T04:46:16;10.82;;;3.03;;
3941;SDS011;1985;48.592;8.850;2022-08-03T04:48:46;9.90;;;2.50;;
3941;SDS011;1985;48.592;8.850;2022-08-03T04:51:12;10.30;;;2.65;;
3941;SDS011;1985;48.592;8.850;2022-08-03T04:53:39;10.52;;;2.75;;
3941;SDS011;1985;48.592;8.850;2022-08-03T04:56:05;12.02;;;2.72;;
3941;SDS011;1985;48.592;8.850;2022-08-03T04:58:31;10.98;;;2.88;;
3941;SDS011;1985;48.592;8.850;2022-08-03T05:00:57;10.05;;;2.80;;
3941;SDS011;1985;48.592;8.850;2022-08-03T05:03:23;14.20;;;2.58;;
3941;SDS011;1985;48.592;8.850;2022-08-03T05:05:49;11.02;;;3.22;;
3941;SDS011;1985;48.592;8.850;2022-08-03T05:08:18;11.57;;;3.00;;
3941;SDS011;1985;48.592;8.850;2022-08-03T05:10:44;10.90;;;2.95;;
3941;SDS011;1985;48.592;8.850;2022-08-03T05:13:10;10.57;;;3.10;;
3941;SDS011;1985;48.592;8.850;2022-08-03T05:15:37;10.95;;;3.40;;
3941;SDS011;1985;48.592;8.850;2022-08-03T05:18:03;11.33;;;3.80;;
3941;SDS011;1985;48.592;8.850;2022-08-03T05:20:28;11.13;;;3.30;;
3941;SDS011;1985;48.592;8.850;2022-08-03T05:22:55;11.25;;;3.50;;
3941;SDS011;1985;48.592;8.850;2022-08-03T05:25:21;10.90;;;3.10;;
3941;SDS011;1985;48.592;8.850;2022-08-03T05:27:47;11.50;;;3.30;;
3941;SDS011;1985;48.592;8.850;2022-08-03T05:30:12;12.57;;;3.00;;
3941;SDS011;1985;48.592;8.850;2022-08-03T05:32:38;12.82;;;3.80;;
3941;SDS011;1985;48.592;8.850;2022-08-03T05:35:04;11.00;;;2.97;;
3941;SDS011;1985;48.592;8.850;2022-08-03T05:37:30;13.60;;;3.42;;
3941;SDS011;1985;48.592;8.850;2022-08-03T05:39:56;11.80;;;3.63;;
3941;SDS011;1985;48.592;8.850;2022-08-03T05:42:21;10.67;;;3.40;;
3941;SDS011;1985;48.592;8.850;2022-08-03T05:44:47;11.77;;;3.33;;
3941;SDS011;1985;48.592;8.850;2022-08-03T05:47:13;11.27;;;3.40;;
3941;SDS011;1985;48.592;8.850;2022-08-03T05:49:38;12.25;;;3.97;;
3941;SDS011;1985;48.592;8.850;2022-08-03T05:52:04;10.93;;;3.50;;
3941;SDS011;1985;48.592;8.850;2022-08-03T05:54:30;11.27;;;3.80;;
3941;SDS011;1985;48.592;8.850;2022-08-03T05:56:55;12.33;;;3.73;;
3941;SDS011;1985;48.592;8.850;2022-08-03T05:59:21;11.47;;;3.60;;
3941;SDS011;1985;48.592;8.850;2022-08-03T06:01:46;11.13;;;3.53;;
3941;SDS011;1985;48.592;8.850;2022-08-03T06:04:12;12.02;;;3.85;;
3941;SDS011;1985;48.592;8.850;2022-08-03T06:06:38;11.83;;;3.80;;
3941;SDS011;1985;48.592;8.850;2022-08-03T06:09:04;11.65;;;4.00;;
3941;SDS011;1985;48.592;8.850;2022-08-03T06:11:30;11.77;;;3.73;;
3941;SDS011;1985;48.592;8.850;2022-08-03T06:13:55;11.40;;;3.10;;
3941;SDS011;1985;48.592;8.850;2022-08-03T06:16:21;11.90;;;4.03;;
3941;SDS011;1985;48.592;8.850;2022-08-03T06:18:46;11.73;;;3.63;;
3941;SDS011;1985;48.592;8.850;2022-08-03T06:21:12;12.15;;;3.90;;
3941;SDS011;1985;48.592;8.850;2022-08-03T06:23:38;11.63;;;3.50;;
3941;SDS011;1985;48.592;8.850;2022-08-03T06:26:03;12.57;;;4.00;;
3941;SDS011;1985;48.592;8.850;2022-08-03T06:28:29;11.50;;;3.80;;
3941;SDS011;1985;48.592;8.850;2022-08-03T06:30:54;12.63;;;3.90;;
3941;SDS011;1985;48.592;8.850;2022-08-03T06:33:20;12.43;;;4.37;;
3941;SDS011;1985;48.592;8.850;2022-08-03T06:35:46;11.35;;;3.08;;
3941;SDS011;1985;48.592;8.850;2022-08-03T06:38:11;10.57;;;3.38;;
3941;SDS011;1985;48.592;8.850;2022-08-03T06:40:37;12.23;;;3.80;;
3941;SDS011;1985;48.592;8.850;2022-08-03T06:43:06;11.05;;;3.10;;
3941;SDS011;1985;48.592;8.850;2022-08-03T06:45:32;11.90;;;3.63;;
3941;SDS011;1985;48.592;8.850;2022-08-03T06:50:32;14.20;;;3.80;;
3941;SDS011;1985;48.592;8.850;2022-08-03T06:52:59;12.98;;;4.40;;
3941;SDS011;1985;48.592;8.850;2022-08-03T06:55:26;13.63;;;3.60;;
3941;SDS011;1985;48.592;8.850;2022-08-03T06:57:51;11.30;;;3.70;;
3941;SDS011;1985;48.592;8.850;2022-08-03T07:00:17;13.67;;;3.33;;
3941;SDS011;1985;48.592;8.850;2022-08-03T07:02:44;10.63;;;2.80;;
3941;SDS011;1985;48.592;8.850;2022-08-03T07:05:10;14.48;;;3.83;;
3941;SDS011;1985;48.592;8.850;2022-08-03T07:07:36;10.02;;;2.95;;
3941;SDS011;1985;48.592;8.850;2022-08-03T07:10:02;11.27;;;3.40;;
3941;SDS011;1985;48.592;8.850;2022-08-03T07:12:30;12.77;;;3.58;;
3941;SDS011;1985;48.592;8.850;2022-08-03T07:14:56;10.75;;;3.30;;
3941;SDS011;1985;48.592;8.850;2022-08-03T07:17:23;12.45;;;3.95;;
3941;SDS011;1985;48.592;8.850;2022-08-03T07:19:49;11.32;;;3.47;;
3941;SDS011;1985;48.592;8.850;2022-08-03T07:22:14;10.80;;;2.90;;
3941;SDS011;1985;48.592;8.850;2022-08-03T07:24:40;11.10;;;3.67;;
3941;SDS011;1985;48.592;8.850;2022-08-03T07:27:06;10.20;;;3.00;;
3941;SDS011;1985;48.592;8.850;2022-08-03T07:29:33;11.38;;;3.38;;
3941;SDS011;1985;48.592;8.850;2022-08-03T07:31:59;11.23;;;3.60;;
3941;SDS011;1985;48.592;8.850;2022-08-03T07:34:25;13.10;;;3.38;;
3941;SDS011;1985;48.592;8.850;2022-08-03T07:36:50;10.10;;;3.13;;
3941;SDS011;1985;48.592;8.850;2022-08-03T07:39:16;11.65;;;3.00;;
3941;SDS011;1985;48.592;8.850;2022-08-03T07:41:42;10.07;;;2.80;;
3941;SDS011;1985;48.592;8.850;2022-08-03T07:44:08;10.30;;;3.00;;
3941;SDS011;1985;48.592;8.850;2022-08-03T07:46:33;10.40;;;3.20;;
3941;SDS011;1985;48.592;8.850;2022-08-03T07:48:59;9.90;;;2.67;;
3941;SDS011;1985;48.592;8.850;2022-08-03T07:51:25;9.43;;;2.53;;
3941;SDS011;1985;48.592;8.850;2022-08-03T07:53:51;14.07;;;2.72;;
3941;SDS011;1985;48.592;8.850;2022-08-03T07:56:17;9.70;;;2.70;;
3941;SDS011;1985;48.592;8.850;2022-08-03T07:58:43;9.53;;;2.40;;
3941;SDS011;1985;48.592;8.850;2022-08-03T08:01:09;10.00;;;2.50;;
3941;SDS011;1985;48.592;8.850;2022-08-03T08:03:34;10.73;;;2.70;;
3941;SDS011;1985;48.592;8.850;2022-08-03T08:06:00;10.55;;;2.70;;
3941;SDS011;1985;48.592;8.850;2022-08-03T08:08:26;9.40;;;2.10;;
3941;SDS011;1985;48.592;8.850;2022-08-03T08:10:51;8.88;;;1.90;;
3941;SDS011;1985;48.592;8.850;2022-08-03T08:13:17;9.25;;;1.60;;
3941;SDS011;1985;48.592;8.850;2022-08-03T08:15:43;9.13;;;1.90;;
3941;SDS011;1985;48.592;8.850;2022-08-03T08:18:08;8.60;;;1.88;;
3941;SDS011;1985;48.592;8.850;2022-08-03T08:20:34;9.35;;;1.90;;
3941;SDS011;1985;48.592;8.850;2022-08-03T08:23:03;9.88;;;1.80;;
3941;SDS011;1985;48.592;8.850;2022-08-03T08:25:30;8.40;;;1.65;;
3941;SDS011;1985;48.592;8.850;2022-08-03T08:27:57;8.45;;;1.67;;
3941;SDS011;1985;48.592;8.850;2022-08-03T08:30:26;8.70;;;1.60;;
3941;SDS011;1985;48.592;8.850;2022-08-03T08:32:52;8.37;;;1.70;;
3941;SDS011;1985;48.592;8.850;2022-08-03T08:35:18;8.67;;;1.63;;
3941;SDS011;1985;48.592;8.850;2022-08-03T08:37:44;8.73;;;1.50;;
3941;SDS011;1985;48.592;8.850;2022-08-03T08:40:10;10.23;;;1.30;;
3941;SDS011;1985;48.592;8.850;2022-08-03T08:42:37;8.20;;;1.50;;
3941;SDS011;1985;48.592;8.850;2022-08-03T08:45:04;8.60;;;1.48;;
3941;SDS011;1985;48.592;8.850;2022-08-03T08:47:32;8.20;;;1.48;;
3941;SDS011;1985;48.592;8.850;2022-08-03T08:50:01;9.88;;;1.75;;
3941;SDS011;1985;48.592;8.850;2022-08-03T08:52:28;8.50;;;1.50;;
3941;SDS011;1985;48.592;8.850;2022-08-03T08:54:55;8.20;;;1.70;;
3941;SDS011;1985;48.592;8.850;2022-08-03T08:57:25;8.30;;;1.40;;
3941;SDS011;1985;48.592;8.850;2022-08-03T08:59:54;7.72;;;1.10;;
3941;SDS011;1985;48.592;8.850;2022-08-03T09:02:23;8.25;;;1.35;;
3941;SDS011;1985;48.592;8.850;2022-08-03T09:04:50;8.13;;;1.10;;
3941;SDS011;1985;48.592;8.850;2022-08-03T09:07:17;7.90;;;1.20;;
3941;SDS011;1985;48.592;8.850;2022-08-03T09:09:43;8.00;;;1.30;;
3941;SDS011;1985;48.592;8.850;2022-08-03T09:12:08;8.37;;;1.50;;
3941;SDS011;1985;48.592;8.850;2022-08-03T09:14:34;8.10;;;1.30;;
3941;SDS011;1985;48.592;8.850;2022-08-03T09:17:00;8.13;;;1.30;;
3941;SDS011;1985;48.592;8.850;2022-08-03T09:19:27;8.40;;;1.40;;
3941;SDS011;1985;48.592;8.850;2022-08-03T09:22:27;10.52;;;1.60;;
3941;SDS011;1985;48.592;8.850;2022-08-03T09:27:28;8.30;;;1.70;;
3941;SDS011;1985;48.592;8.850;2022-08-03T09:30:05;7.90;;;1.30;;
3941;SDS011;1985;48.592;8.850;2022-08-03T09:32:40;8.10;;;1.50;;
3941;SDS011;1985;48.592;8.850;2022-08-03T09:35:08;8.10;;;1.40;;
3941;SDS011;1985;48.592;8.850;2022-08-03T09:37:35;8.25;;;1.60;;
3941;SDS011;1985;48.592;8.850;2022-08-03T09:40:01;8.27;;;1.50;;
3941;SDS011;1985;48.592;8.850;2022-08-03T09:42:27;8.00;;;1.50;;
3941;SDS011;1985;48.592;8.850;2022-08-03T09:44:52;8.50;;;1.53;;
3941;SDS011;1985;48.592;8.850;2022-08-03T09:50:06;10.50;;;1.70;;
3941;SDS011;1985;48.592;8.850;2022-08-03T09:55:08;7.63;;;1.30;;
3941;SDS011;1985;48.592;8.850;2022-08-03T09:57:36;7.60;;;1.23;;
3941;SDS011;1985;48.592;8.850;2022-08-03T10:00:09;7.90;;;1.20;;
3941;SDS011;1985;48.592;8.850;2022-08-03T10:02:38;10.82;;;1.60;;
3941;SDS011;1985;48.592;8.850;2022-08-03T10:05:05;7.60;;;1.30;;
3941;SDS011;1985;48.592;8.850;2022-08-03T10:07:42;8.73;;;1.33;;
3941;SDS011;1985;48.592;8.850;2022-08-03T10:10:09;7.70;;;1.40;;
3941;SDS011;1985;48.592;8.850;2022-08-03T10:12:35;8.10;;;1.40;;
3941;SDS011;1985;48.592;8.850;2022-08-03T10:15:02;8.37;;;1.30;;
3941;SDS011;1985;48.592;8.850;2022-08-03T10:17:29;7.90;;;1.20;;
3941;SDS011;1985;48.592;8.850;2022-08-03T10:19:55;9.03;;;1.57;;
3941;SDS011;1985;48.592;8.850;2022-08-03T10:22:23;8.50;;;1.50;;
3941;SDS011;1985;48.592;8.850;2022-08-03T10:24:55;7.40;;;1.17;;
3941;SDS011;1985;48.592;8.850;2022-08-03T10:27:32;8.30;;;1.50;;
3941;SDS011;1985;48.592;8.850;2022-08-03T10:30:01;8.20;;;1.40;;
3941;SDS011;1985;48.592;8.850;2022-08-03T10:32:29;7.15;;;1.17;;
3941;SDS011;1985;48.592;8.850;2022-08-03T10:35:03;7.70;;;1.13;;
3941;SDS011;1985;48.592;8.850;2022-08-03T10:37:33;7.20;;;1.40;;
3941;SDS011;1985;48.592;8.850;2022-08-03T10:40:05;7.60;;;1.50;;
3941;SDS011;1985;48.592;8.850;2022-08-03T10:42:33;7.40;;;1.40;;
3941;SDS011;1985;48.592;8.850;2022-08-03T10:45:05;7.32;;;1.30;;
3941;SDS011;1985;48.592;8.850;2022-08-03T10:47:33;8.38;;;1.40;;
3941;SDS011;1985;48.592;8.850;2022-08-03T10:50:00;7.30;;;1.20;;
3941;SDS011;1985;48.592;8.850;2022-08-03T10:52:27;7.30;;;1.30;;
3941;SDS011;1985;48.592;8.850;2022-08-03T10:54:53;8.90;;;1.20;;
3941;SDS011;1985;48.592;8.850;2022-08-03T11:00:21;7.32;;;1.20;;
3941;SDS011;1985;48.592;8.850;2022-08-03T11:05:30;7.20;;;1.40;;
3941;SDS011;1985;48.592;8.850;2022-08-03T11:10:46;7.10;;;1.20;;
3941;SDS011;1985;48.592;8.850;2022-08-03T11:13:16;7.28;;;1.30;;
3941;SDS011;1985;48.592;8.850;2022-08-03T11:15:44;7.60;;;1.20;;
3941;SDS011;1985;48.592;8.850;2022-08-03T11:18:12;8.52;;;1.23;;
3941;SDS011;1985;48.592;8.850;2022-08-03T11:23:39;6.83;;;1.10;;
3941;SDS011;1985;48.592;8.850;2022-08-03T11:26:16;7.43;;;1.30;;
3941;SDS011;1985;48.592;8.850;2022-08-03T11:28:46;7.33;;;1.30;;
3941;SDS011;1985;48.592;8.850;2022-08-03T11:34:06;7.10;;;1.40;;
3941;SDS011;1985;48.592;8.850;2022-08-03T11:44:52;6.90;;;1.10;;
3941;SDS011;1985;48.592;8.850;2022-08-03T11:47:22;7.80;;;1.50;;
3941;SDS011;1985;48.592;8.850;2022-08-03T11:49:53;6.70;;;1.10;;
3941;SDS011;1985;48.592;8.850;2022-08-03T11:52:21;7.20;;;1.40;;
3941;SDS011;1985;48.592;8.850;2022-08-03T11:54:50;7.03;;;1.15;;
3941;SDS011;1985;48.592;8.850;2022-08-03T11:57:30;6.70;;;1.10;;
3941;SDS011;1985;48.592;8.850;2022-08-03T11:59:57;8.38;;;1.30;;
3941;SDS011;1985;48.592;8.850;2022-08-03T12:02:23;7.40;;;1.15;;
3941;SDS011;1985;48.592;8.850;2022-08-03T12:07:22;9.50;;;1.30;;
3941;SDS011;1985;48.592;8.850;2022-08-03T12:12:34;7.55;;;1.45;;
3941;SDS011;1985;48.592;8.850;2022-08-03T12:15:01;9.95;;;1.40;;
3941;SDS011;1985;48.592;8.850;2022-08-03T12:17:37;6.90;;;1.20;;
3941;SDS011;1985;48.592;8.850;2022-08-03T12:20:06;8.00;;;1.40;;
3941;SDS011;1985;48.592;8.850;2022-08-03T12:22:35;6.72;;;1.15;;
3941;SDS011;1985;48.592;8.850;2022-08-03T12:25:03;6.80;;;1.30;;
3941;SDS011;1985;48.592;8.850;2022-08-03T12:27:29;6.85;;;1.20;;
3941;SDS011;1985;48.592;8.850;2022-08-03T12:29:55;6.75;;;1.20;;
3941;SDS011;1985;48.592;8.850;2022-08-03T12:32:22;6.90;;;1.30;;
3941;SDS011;1985;48.592;8.850;2022-08-03T12:34:49;6.80;;;1.30;;
3941;SDS011;1985;48.592;8.850;2022-08-03T12:37:21;7.50;;;1.20;;
3941;SDS011;1985;48.592;8.850;2022-08-03T12:39:51;7.03;;;1.30;;
3941;SDS011;1985;48.592;8.850;2022-08-03T12:42:18;7.53;;;1.10;;
3941;SDS011;1985;48.592;8.850;2022-08-03T12:44:44;6.72;;;1.05;;
3941;SDS011;1985;48.592;8.850;2022-08-03T12:47:13;7.00;;;1.30;;
3941;SDS011;1985;48.592;8.850;2022-08-03T12:49:46;7.80;;;1.40;;
3941;SDS011;1985;48.592;8.850;2022-08-03T12:52:13;7.50;;;1.20;;
3941;SDS011;1985;48.592;8.850;2022-08-03T12:54:40;7.30;;;1.30;;
3941;SDS011;1985;48.592;8.850;2022-08-03T12:57:10;7.60;;;1.33;;
3941;SDS011;1985;48.592;8.850;2022-08-03T12:59:37;7.35;;;1.60;;
3941;SDS011;1985;48.592;8.850;2022-08-03T13:02:13;6.70;;;1.20;;
3941;SDS011;1985;48.592;8.850;2022-08-03T13:04:41;7.40;;;1.30;;
3941;SDS011;1985;48.592;8.850;2022-08-03T13:07:07;7.40;;;1.30;;
3941;SDS011;1985;48.592;8.850;2022-08-03T13:09:54;7.10;;;1.30;;
3941;SDS011;1985;48.592;8.850;2022-08-03T13:12:24;6.70;;;1.10;;
3941;SDS011;1985;48.592;8.850;2022-08-03T13:14:52;7.00;;;1.20;;
3941;SDS011;1985;48.592;8.850;2022-08-03T13:17:20;7.38;;;1.40;;
3941;SDS011;1985;48.592;8.850;2022-08-03T13:19:46;7.07;;;1.45;;
3941;SDS011;1985;48.592;8.850;2022-08-03T13:22:12;6.57;;;1.03;;
3941;SDS011;1985;48.592;8.850;2022-08-03T13:24:47;7.60;;;1.20;;
3941;SDS011;1985;48.592;8.850;2022-08-03T13:27:14;6.70;;;1.10;;
3941;SDS011;1985;48.592;8.850;2022-08-03T13:29:40;7.50;;;1.40;;
3941;SDS011;1985;48.592;8.850;2022-08-03T13:32:07;7.70;;;1.30;;
3941;SDS011;1985;48.592;8.850;2022-08-03T13:34:33;7.07;;;1.20;;
3941;SDS011;1985;48.592;8.850;2022-08-03T13:36:59;7.10;;;1.45;;
3941;SDS011;1985;48.592;8.850;2022-08-03T13:39:25;6.70;;;1.10;;
3941;SDS011;1985;48.592;8.850;2022-08-03T13:41:51;7.00;;;1.30;;
3941;SDS011;1985;48.592;8.850;2022-08-03T13:44:17;7.20;;;1.38;;
3941;SDS011;1985;48.592;8.850;2022-08-03T13:46:43;7.10;;;1.42;;
3941;SDS011;1985;48.592;8.850;2022-08-03T13:49:09;7.38;;;1.50;;
3941;SDS011;1985;48.592;8.850;2022-08-03T13:51:35;7.30;;;1.40;;
3941;SDS011;1985;48.592;8.850;2022-08-03T13:54:01;6.70;;;1.30;;
3941;SDS011;1985;48.592;8.850;2022-08-03T13:56:27;7.20;;;1.40;;
3941;SDS011;1985;48.592;8.850;2022-08-03T13:58:53;7.10;;;1.30;;
3941;SDS011;1985;48.592;8.850;2022-08-03T14:01:19;8.80;;;1.20;;
3941;SDS011;1985;48.592;8.850;2022-08-03T14:03:45;7.28;;;1.38;;
3941;SDS011;1985;48.592;8.850;2022-08-03T14:06:14;7.30;;;1.30;;
3941;SDS011;1985;48.592;8.850;2022-08-03T14:08:40;6.70;;;1.10;;
3941;SDS011;1985;48.592;8.850;2022-08-03T14:11:05;7.20;;;1.37;;
3941;SDS011;1985;48.592;8.850;2022-08-03T14:13:31;7.10;;;1.20;;
3941;SDS011;1985;48.592;8.850;2022-08-03T14:15:57;9.70;;;1.70;;
3941;SDS011;1985;48.592;8.850;2022-08-03T14:18:22;9.70;;;1.40;;
3941;SDS011;1985;48.592;8.850;2022-08-03T14:20:48;7.30;;;1.00;;
3941;SDS011;1985;48.592;8.850;2022-08-03T14:23:14;7.70;;;1.38;;
3941;SDS011;1985;48.592;8.850;2022-08-03T14:25:40;7.90;;;1.80;;
3941;SDS011;1985;48.592;8.850;2022-08-03T14:28:06;7.20;;;1.20;;
3941;SDS011;1985;48.592;8.850;2022-08-03T14:30:32;6.85;;;1.17;;
3941;SDS011;1985;48.592;8.850;2022-08-03T14:32:58;8.70;;;1.20;;
3941;SDS011;1985;48.592;8.850;2022-08-03T14:35:24;6.80;;;1.37;;
3941;SDS011;1985;48.592;8.850;2022-08-03T14:37:49;7.10;;;1.30;;
3941;SDS011;1985;48.592;8.850;2022-08-03T14:40:16;8.18;;;1.65;;
3941;SDS011;1985;48.592;8.850;2022-08-03T14:42:42;6.97;;;1.20;;
3941;SDS011;1985;48.592;8.850;2022-08-03T14:45:07;7.00;;;1.30;;
3941;SDS011;1985;48.592;8.850;2022-08-03T14:47:33;7.20;;;1.50;;
3941;SDS011;1985;48.592;8.850;2022-08-03T14:49:59;6.70;;;1.13;;
3941;SDS011;1985;48.592;8.850;2022-08-03T14:52:26;6.60;;;1.00;;
3941;SDS011;1985;48.592;8.850;2022-08-03T14:54:51;8.35;;;1.40;;
3941;SDS011;1985;48.592;8.850;2022-08-03T14:57:17;6.93;;;1.27;;
3941;SDS011;1985;48.592;8.850;2022-08-03T14:59:43;7.10;;;1.30;;
3941;SDS011;1985;48.592;8.850;2022-08-03T15:02:08;7.20;;;1.50;;
3941;SDS011;1985;48.592;8.850;2022-08-03T15:04:34;6.83;;;1.10;;
3941;SDS011;1985;48.592;8.850;2022-08-03T15:06:59;7.40;;;1.40;;
3941;SDS011;1985;48.592;8.850;2022-08-03T15:09:25;6.90;;;1.20;;
3941;SDS011;1985;48.592;8.850;2022-08-03T15:11:51;7.57;;;1.27;;
3941;SDS011;1985;48.592;8.850;2022-08-03T15:14:16;7.20;;;1.30;;
3941;SDS011;1985;48.592;8.850;2022-08-03T15:16:42;7.47;;;1.30;;
3941;SDS011;1985;48.592;8.850;2022-08-03T15:19:07;7.20;;;1.20;;
3941;SDS011;1985;48.592;8.850;2022-08-03T15:21:33;7.10;;;1.20;;
3941;SDS011;1985;48.592;8.850;2022-08-03T15:23:59;8.00;;;1.33;;
3941;SDS011;1985;48.592;8.850;2022-08-03T15:26:24;7.55;;;1.25;;
3941;SDS011;1985;48.592;8.850;2022-08-03T15:28:50;7.70;;;1.50;;
3941;SDS011;1985;48.592;8.850;2022-08-03T15:31:19;7.20;;;1.20;;
3941;SDS011;1985;48.592;8.850;2022-08-03T15:33:46;8.20;;;1.30;;
3941;SDS011;1985;48.592;8.850;2022-08-03T15:36:12;7.40;;;1.30;;
3941;SDS011;1985;48.592;8.850;2022-08-03T15:38:37;7.40;;;1.60;;
3941;SDS011;1985;48.592;8.850;2022-08-03T15:41:03;7.40;;;1.20;;
3941;SDS011;1985;48.592;8.850;2022-08-03T15:43:28;7.00;;;1.10;;
3941;SDS011;1985;48.592;8.850;2022-08-03T15:45:54;7.20;;;1.20;;
3941;SDS011;1985;48.592;8.850;2022-08-03T15:48:19;7.30;;;1.20;;
3941;SDS011;1985;48.592;8.850;2022-08-03T15:50:47;10.25;;;1.45;;
3941;SDS011;1985;48.592;8.850;2022-08-03T15:53:12;7.20;;;1.40;;
3941;SDS011;1985;48.592;8.850;2022-08-03T15:55:38;7.40;;;1.30;;
3941;SDS011;1985;48.592;8.850;2022-08-03T15:58:04;7.10;;;1.13;;
3941;SDS011;1985;48.592;8.850;2022-08-03T16:00:29;7.55;;;1.13;;
3941;SDS011;1985;48.592;8.850;2022-08-03T16:02:55;7.10;;;1.40;;
3941;SDS011;1985;48.592;8.850;2022-08-03T16:05:21;7.00;;;1.27;;